createdAt,value
2023-04-18T00:00:02.858Z,0.1185
2023-04-18T00:01:03.924Z,0.0000
2023-04-18T00:02:05.116Z,1.0673
2023-04-18T00:03:06.695Z,0.5910
2023-04-18T00:04:08.528Z,0.5859
2023-04-18T00:05:09.883Z,0.9402
2023-04-18T00:06:11.000Z,0.1778
2023-04-18T00:07:12.160Z,1.2438
2023-04-18T00:08:13.294Z,0.1186
2023-04-18T00:09:14.560Z,1.1241
2023-04-18T00:10:15.669Z,0.0592
2023-04-18T00:11:16.747Z,0.0000
2023-04-18T00:12:17.831Z,0.0000
2023-04-18T00:13:18.972Z,0.0000
2023-04-18T00:14:20.067Z,0.0000
2023-04-18T00:15:21.178Z,0.0000
2023-04-18T00:16:22.314Z,0.1186
2023-04-18T00:17:23.505Z,0.0000
2023-04-18T00:18:24.622Z,0.0000
2023-04-18T00:19:25.739Z,0.0000
2023-04-18T00:20:26.854Z,0.0593
2023-04-18T00:21:27.951Z,0.0000
2023-04-18T00:22:29.078Z,0.0000
2023-04-18T00:23:30.233Z,0.0000
2023-04-18T00:24:31.319Z,0.0000
2023-04-18T00:25:32.447Z,0.0000
2023-04-18T00:26:33.517Z,0.0000
2023-04-18T00:27:34.695Z,0.0000
2023-04-18T00:28:35.764Z,0.0000
2023-04-18T00:29:36.928Z,0.0000
2023-04-18T00:30:38.092Z,0.0000
2023-04-18T00:31:39.181Z,0.0000
2023-04-18T00:32:40.314Z,0.0000
2023-04-18T00:33:41.387Z,0.0000
2023-04-18T00:34:42.551Z,0.0000
2023-04-18T00:35:43.678Z,0.0000
2023-04-18T00:36:44.763Z,0.0000
2023-04-18T00:37:45.841Z,0.0000
2023-04-18T00:38:46.958Z,0.0000
2023-04-18T00:39:48.094Z,0.0000
2023-04-18T00:40:49.246Z,0.0000
2023-04-18T00:41:50.364Z,0.0000
2023-04-18T00:42:51.431Z,0.0000
2023-04-18T00:43:52.705Z,0.0000
2023-04-18T00:44:53.736Z,0.0591
2023-04-18T00:45:54.861Z,0.0000
2023-04-18T00:46:55.940Z,0.0000
2023-04-18T00:47:57.012Z,0.0000
2023-04-18T00:48:58.095Z,0.2373
2023-04-18T00:49:59.227Z,0.0000
2023-04-18T00:51:00.303Z,0.0000
2023-04-18T00:52:01.393Z,0.0000
2023-04-18T00:53:02.507Z,0.0000
2023-04-18T00:54:03.632Z,0.0000
2023-04-18T00:55:04.714Z,0.0000
2023-04-18T00:56:05.833Z,0.0000
2023-04-18T00:57:06.915Z,0.0000
2023-04-18T00:58:08.013Z,0.0000
2023-04-18T00:59:09.071Z,0.0000
2023-04-18T01:00:10.194Z,0.0000
2023-04-18T01:01:11.341Z,0.0000
2023-04-18T01:02:12.503Z,0.0000
2023-04-18T01:03:13.766Z,0.0000
2023-04-18T01:04:15.137Z,0.0000
2023-04-18T01:05:16.646Z,0.0000
2023-04-18T01:06:17.770Z,0.0000
2023-04-18T01:07:18.891Z,0.0000
2023-04-18T01:08:19.965Z,0.0000
2023-04-18T01:09:21.087Z,0.0000
2023-04-18T01:10:22.223Z,0.0000
2023-04-18T01:11:23.510Z,0.0592
2023-04-18T01:12:24.584Z,0.0000
2023-04-18T01:13:25.724Z,0.7705
2023-04-18T01:14:26.773Z,0.0000
2023-04-18T01:15:27.921Z,0.0000
2023-04-18T01:16:29.032Z,0.2961
2023-04-18T01:17:30.219Z,0.5331
2023-04-18T01:18:31.362Z,0.0000
2023-04-18T01:19:32.717Z,0.0000
2023-04-18T01:20:33.873Z,0.0000
2023-04-18T01:21:35.023Z,0.0000
2023-04-18T01:22:36.166Z,0.0000
2023-04-18T01:23:37.283Z,0.0000
2023-04-18T01:24:38.377Z,0.0000
2023-04-18T01:25:39.626Z,0.0000
2023-04-18T01:26:40.665Z,0.0000
2023-04-18T01:27:41.824Z,0.0000
2023-04-18T01:28:42.925Z,0.0000
2023-04-18T01:29:44.016Z,0.0000
2023-04-18T01:30:45.224Z,0.0000
2023-04-18T01:31:46.431Z,0.0000
2023-04-18T01:32:47.573Z,0.0000
2023-04-18T01:33:48.669Z,0.0000
2023-04-18T01:34:49.765Z,0.0000
2023-04-18T01:35:51.099Z,0.0000
2023-04-18T01:36:52.150Z,0.0000
2023-04-18T01:37:53.215Z,0.0000
2023-04-18T01:38:54.348Z,0.0000
2023-04-18T01:39:55.510Z,0.0000
2023-04-18T01:40:56.603Z,0.0000
2023-04-18T01:41:57.862Z,0.0000
2023-04-18T01:42:58.942Z,0.0000
2023-04-18T01:44:00.016Z,0.0000
2023-04-18T01:45:01.140Z,0.0000
2023-04-18T01:46:02.301Z,0.0000
2023-04-18T01:47:03.440Z,0.0000
2023-04-18T01:48:04.552Z,0.0000
2023-04-18T01:49:05.640Z,0.0000
2023-04-18T01:50:06.743Z,0.0000
2023-04-18T01:51:07.852Z,0.0000
2023-04-18T01:52:09.020Z,0.0000
2023-04-18T01:53:10.465Z,0.0000
2023-04-18T01:54:11.823Z,0.0000
2023-04-18T01:55:13.442Z,0.0000
2023-04-18T01:56:14.535Z,0.0000
2023-04-18T01:57:15.646Z,0.0000
2023-04-18T01:58:16.748Z,0.0000
2023-04-18T01:59:17.955Z,0.0000
2023-04-18T02:00:19.109Z,0.0000
2023-04-18T02:01:20.340Z,0.0000
2023-04-18T02:02:21.768Z,0.0591
2023-04-18T02:03:23.273Z,0.0000
2023-04-18T02:04:24.484Z,0.0000
2023-04-18T02:05:25.601Z,0.0000
2023-04-18T02:06:26.995Z,0.0000
2023-04-18T02:07:28.151Z,0.0000
2023-04-18T02:08:29.272Z,0.0000
2023-04-18T02:09:30.388Z,0.0000
2023-04-18T02:10:31.523Z,0.0000
2023-04-18T02:11:32.673Z,0.0000
2023-04-18T02:12:33.753Z,0.0000
2023-04-18T02:13:35.033Z,0.0000
2023-04-18T02:14:36.385Z,0.0000
2023-04-18T02:15:37.549Z,0.0000
2023-04-18T02:16:38.708Z,0.0000
2023-04-18T02:17:39.799Z,0.0000
2023-04-18T02:18:40.960Z,0.0593
2023-04-18T02:19:42.086Z,0.0000
2023-04-18T02:20:43.212Z,0.0000
2023-04-18T02:21:44.324Z,0.0000
2023-04-18T02:22:45.481Z,0.2370
2023-04-18T02:23:46.600Z,0.0000
2023-04-18T02:24:47.707Z,0.1185
2023-04-18T02:25:48.804Z,0.0000
2023-04-18T02:26:49.927Z,0.0000
2023-04-18T02:27:51.034Z,0.0593
2023-04-18T02:28:52.266Z,0.1778
2023-04-18T02:29:53.442Z,0.0000
2023-04-18T02:30:54.576Z,1.1253
2023-04-18T02:31:55.785Z,0.6514
2023-04-18T02:32:56.977Z,0.0592
2023-04-18T02:33:59.219Z,0.0581
2023-04-18T02:35:00.317Z,0.0000
2023-04-18T02:36:01.426Z,0.0000
2023-04-18T02:37:02.576Z,0.0000
2023-04-18T02:38:03.807Z,0.0000
2023-04-18T02:39:04.936Z,0.0000
2023-04-18T02:40:06.061Z,0.0000
2023-04-18T02:41:07.203Z,0.0000
2023-04-18T02:42:08.335Z,0.0000
2023-04-18T02:43:09.510Z,0.0000
2023-04-18T02:44:10.626Z,0.0000
2023-04-18T02:45:11.856Z,0.0000
2023-04-18T02:46:13.041Z,0.0000
2023-04-18T02:47:14.188Z,0.0000
2023-04-18T02:48:15.424Z,0.0000
2023-04-18T02:49:16.595Z,0.0000
2023-04-18T02:50:17.673Z,0.0000
2023-04-18T02:51:18.908Z,0.0000
2023-04-18T02:52:20.047Z,0.0000
2023-04-18T02:53:21.211Z,0.0000
2023-04-18T02:54:22.307Z,0.0000
2023-04-18T02:55:23.455Z,0.0000
2023-04-18T02:56:24.539Z,0.0000
2023-04-18T02:57:25.643Z,0.0000
2023-04-18T02:58:26.784Z,0.0000
2023-04-18T02:59:27.924Z,0.0000
2023-04-18T03:00:29.047Z,0.0000
2023-04-18T03:01:30.199Z,0.0000
2023-04-18T03:02:31.454Z,0.0591
2023-04-18T03:03:32.742Z,0.0000
2023-04-18T03:04:33.945Z,0.0000
2023-04-18T03:05:35.159Z,0.0592
2023-04-18T03:06:36.288Z,0.0000
2023-04-18T03:07:37.428Z,0.0592
2023-04-18T03:08:38.533Z,0.0000
2023-04-18T03:09:39.674Z,0.0592
2023-04-18T03:10:40.812Z,0.0000
2023-04-18T03:11:42.104Z,0.1184
2023-04-18T03:12:43.249Z,0.0000
2023-04-18T03:13:44.410Z,0.0000
2023-04-18T03:14:45.548Z,0.0000
2023-04-18T03:15:46.708Z,0.0000
2023-04-18T03:16:47.812Z,0.1185
2023-04-18T03:17:49.136Z,0.0000
2023-04-18T03:18:50.280Z,0.0000
2023-04-18T03:19:51.459Z,0.0000
2023-04-18T03:20:52.653Z,0.0000
2023-04-18T03:21:53.798Z,0.0000
2023-04-18T03:22:55.022Z,0.0000
2023-04-18T03:23:56.120Z,0.0000
2023-04-18T03:24:57.230Z,0.0000
2023-04-18T03:25:58.346Z,0.0000
2023-04-18T03:26:59.532Z,0.0000
2023-04-18T03:28:00.706Z,0.0000
2023-04-18T03:29:01.945Z,0.0000
2023-04-18T03:30:03.139Z,0.0000
2023-04-18T03:31:04.389Z,0.0000
2023-04-18T03:32:05.533Z,0.0000
2023-04-18T03:33:06.625Z,0.0000
2023-04-18T03:34:07.800Z,0.0000
2023-04-18T03:35:08.967Z,0.0000
2023-04-18T03:36:10.095Z,0.0000
2023-04-18T03:37:11.204Z,0.0000
2023-04-18T03:38:12.375Z,0.0000
2023-04-18T03:39:13.485Z,0.0000
2023-04-18T03:40:14.640Z,0.0000
2023-04-18T03:41:15.765Z,0.0000
2023-04-18T03:42:16.923Z,0.0000
2023-04-18T03:43:18.076Z,0.0000
2023-04-18T03:44:19.250Z,0.0000
2023-04-18T03:45:20.425Z,0.0000
2023-04-18T03:46:21.616Z,0.0000
2023-04-18T03:47:22.749Z,0.0000
2023-04-18T03:48:23.915Z,0.0000
2023-04-18T03:49:25.036Z,0.0000
2023-04-18T03:50:26.265Z,0.0000
2023-04-18T03:51:27.363Z,0.0000
2023-04-18T03:52:29.830Z,0.0592
2023-04-18T03:53:28.775Z,0.0000
2023-04-18T03:54:29.916Z,0.0000
2023-04-18T03:55:31.065Z,0.0000
2023-04-18T03:56:32.182Z,0.0000
2023-04-18T03:57:33.277Z,0.0000
2023-04-18T03:58:34.403Z,0.0000
2023-04-18T03:59:35.529Z,0.0000
2023-04-18T04:00:36.694Z,0.0000
2023-04-18T04:01:37.909Z,0.0000
2023-04-18T04:02:39.149Z,0.0000
2023-04-18T04:03:40.409Z,0.0000
2023-04-18T04:04:41.913Z,0.0000
2023-04-18T04:05:43.044Z,0.0000
2023-04-18T04:06:44.184Z,0.1186
2023-04-18T04:07:45.378Z,0.0000
2023-04-18T04:08:46.565Z,0.0000
2023-04-18T04:09:47.681Z,0.0592
2023-04-18T04:10:48.843Z,0.0593
2023-04-18T04:11:50.008Z,0.0000
2023-04-18T04:12:51.131Z,0.0000
2023-04-18T04:13:52.282Z,0.0592
2023-04-18T04:14:53.457Z,0.0000
2023-04-18T04:15:54.620Z,0.0000
2023-04-18T04:16:55.781Z,0.0000
2023-04-18T04:17:57.080Z,0.1776
2023-04-18T04:18:58.261Z,0.0591
2023-04-18T04:19:59.372Z,0.0000
2023-04-18T04:21:00.531Z,0.0000
2023-04-18T04:22:01.610Z,0.5333
2023-04-18T04:23:02.796Z,0.0000
2023-04-18T04:24:03.952Z,0.0000
2023-04-18T04:25:05.083Z,0.0000
2023-04-18T04:26:06.202Z,0.0000
2023-04-18T04:27:07.377Z,0.0000
2023-04-18T04:28:08.591Z,0.0000
2023-04-18T04:29:09.716Z,0.0000
2023-04-18T04:30:13.308Z,0.0592
2023-04-18T04:31:12.133Z,0.0000
2023-04-18T04:32:13.324Z,0.0000
2023-04-18T04:33:14.535Z,0.0000
2023-04-18T04:34:15.958Z,0.0000
2023-04-18T04:35:17.311Z,0.0000
2023-04-18T04:36:19.006Z,0.0000
2023-04-18T04:37:20.245Z,0.0000
2023-04-18T04:38:21.440Z,0.0000
2023-04-18T04:39:22.618Z,0.0592
2023-04-18T04:40:23.733Z,0.0000
2023-04-18T04:41:24.910Z,0.0000
2023-04-18T04:42:26.052Z,0.0000
2023-04-18T04:43:27.208Z,0.0000
2023-04-18T04:44:28.364Z,0.0000
2023-04-18T04:45:29.569Z,0.0000
2023-04-18T04:46:30.684Z,0.0000
2023-04-18T04:47:31.947Z,0.0000
2023-04-18T04:48:33.212Z,0.0000
2023-04-18T04:49:34.412Z,0.0000
2023-04-18T04:50:35.583Z,0.0000
2023-04-18T04:51:36.804Z,0.0000
2023-04-18T04:52:37.990Z,0.0000
2023-04-18T04:53:39.376Z,0.0000
2023-04-18T04:54:40.800Z,0.0000
2023-04-18T04:55:42.007Z,0.0000
2023-04-18T04:56:43.169Z,0.0000
2023-04-18T04:57:44.322Z,0.0000
2023-04-18T04:58:45.445Z,0.0000
2023-04-18T04:59:46.571Z,0.0000
2023-04-18T05:00:47.733Z,0.0000
2023-04-18T05:01:48.994Z,0.0000
2023-04-18T05:02:50.520Z,0.0000
2023-04-18T05:03:51.984Z,0.0000
2023-04-18T05:04:53.188Z,0.0000
2023-04-18T05:05:54.361Z,0.0000
2023-04-18T05:06:55.440Z,0.0000
2023-04-18T05:07:56.593Z,0.0000
2023-04-18T05:08:57.819Z,0.0000
2023-04-18T05:09:58.985Z,0.0000
2023-04-18T05:11:00.168Z,0.0000
2023-04-18T05:12:01.421Z,0.0000
2023-04-18T05:13:02.588Z,0.0000
2023-04-18T05:14:03.781Z,0.0592
2023-04-18T05:15:04.934Z,0.0000
2023-04-18T05:16:06.154Z,0.0000
2023-04-18T05:17:07.354Z,0.0000
2023-04-18T05:18:08.632Z,0.0000
2023-04-18T05:19:09.819Z,0.0000
2023-04-18T05:20:10.956Z,0.0000
2023-04-18T05:21:12.182Z,0.0000
2023-04-18T05:22:13.320Z,0.0000
2023-04-18T05:23:14.486Z,0.0000
2023-04-18T05:24:15.955Z,0.0000
2023-04-18T05:25:17.374Z,0.0000
2023-04-18T05:26:18.502Z,0.0000
2023-04-18T05:27:19.637Z,0.0000
2023-04-18T05:28:20.749Z,0.0000
2023-04-18T05:29:21.950Z,0.0000
2023-04-18T05:30:23.050Z,0.0000
2023-04-18T05:31:24.194Z,0.0000
2023-04-18T05:32:25.366Z,0.0000
2023-04-18T05:33:26.466Z,0.0000
2023-04-18T05:34:27.651Z,0.0000
2023-04-18T05:35:28.769Z,0.0000
2023-04-18T05:36:29.876Z,0.0000
2023-04-18T05:37:31.047Z,0.0000
2023-04-18T05:38:32.216Z,0.0000
2023-04-18T05:39:33.373Z,0.0000
2023-04-18T05:40:34.471Z,0.0000
2023-04-18T05:41:35.645Z,0.0000
2023-04-18T05:42:36.762Z,0.0000
2023-04-18T05:43:38.001Z,0.0000
2023-04-18T05:44:39.097Z,0.0000
2023-04-18T05:45:40.277Z,0.0000
2023-04-18T05:46:41.524Z,0.0000
2023-04-18T05:47:42.740Z,0.0590
2023-04-18T05:48:43.913Z,0.0000
2023-04-18T05:49:45.029Z,0.0000
2023-04-18T05:50:46.228Z,0.0000
2023-04-18T05:51:47.367Z,0.0000
2023-04-18T05:52:48.473Z,0.0000
2023-04-18T05:53:49.640Z,0.0000
2023-04-18T05:54:50.766Z,0.0000
2023-04-18T05:55:51.889Z,0.0000
2023-04-18T05:56:53.048Z,0.0000
2023-04-18T05:57:54.219Z,0.0000
2023-04-18T05:58:55.344Z,0.0000
2023-04-18T05:59:56.487Z,0.0000
2023-04-18T06:00:57.620Z,0.0000
2023-04-18T06:01:58.805Z,0.0592
2023-04-18T06:03:00.150Z,0.0000
2023-04-18T06:04:01.814Z,0.0000
2023-04-18T06:05:03.319Z,0.0000
2023-04-18T06:06:04.762Z,0.0000
2023-04-18T06:07:05.909Z,0.0000
2023-04-18T06:08:07.151Z,0.0000
2023-04-18T06:09:08.244Z,0.0000
2023-04-18T06:10:09.386Z,0.0000
2023-04-18T06:11:10.522Z,0.0000
2023-04-18T06:12:11.874Z,0.0000
2023-04-18T06:13:13.175Z,0.0000
2023-04-18T06:14:14.442Z,0.0000
2023-04-18T06:15:15.682Z,0.0000
2023-04-18T06:16:16.957Z,0.0000
2023-04-18T06:17:18.154Z,0.0000
2023-04-18T06:18:19.319Z,0.0000
2023-04-18T06:19:20.546Z,0.0000
2023-04-18T06:20:21.695Z,0.0000
2023-04-18T06:21:22.880Z,0.0000
2023-04-18T06:22:23.995Z,0.0000
2023-04-18T06:23:25.185Z,0.0000
2023-04-18T06:24:26.380Z,0.0000
2023-04-18T06:25:27.536Z,0.0000
2023-04-18T06:26:28.748Z,0.0000
2023-04-18T06:27:31.922Z,0.0000
2023-04-18T06:28:30.627Z,0.0000
2023-04-18T06:29:31.780Z,0.0000
2023-04-18T06:30:32.913Z,0.0000
2023-04-18T06:31:34.054Z,0.0000
2023-04-18T06:32:35.304Z,0.0000
2023-04-18T06:33:36.700Z,0.0000
2023-04-18T06:34:37.870Z,0.0000
2023-04-18T06:35:39.079Z,0.0592
2023-04-18T06:36:40.209Z,0.0000
2023-04-18T06:37:41.348Z,0.0000
2023-04-18T06:38:42.478Z,0.0000
2023-04-18T06:39:43.605Z,0.0000
2023-04-18T06:40:44.806Z,0.0000
2023-04-18T06:41:45.929Z,0.0000
2023-04-18T06:42:47.084Z,0.0000
2023-04-18T06:44:02.109Z,0.0000
2023-04-18T06:44:50.029Z,0.0000
2023-04-18T06:45:51.207Z,0.0000
2023-04-18T06:46:52.377Z,0.0000
2023-04-18T06:47:53.560Z,0.0000
2023-04-18T06:48:54.703Z,0.0000
2023-04-18T06:49:55.861Z,0.0000
2023-04-18T06:50:56.992Z,0.0000
2023-04-18T06:51:58.105Z,0.0000
2023-04-18T06:52:59.352Z,0.0000
2023-04-18T06:54:00.466Z,0.0000
2023-04-18T06:55:01.670Z,0.0000
2023-04-18T06:56:02.916Z,0.0592
2023-04-18T06:57:04.092Z,0.0000
2023-04-18T06:58:05.263Z,0.0000
2023-04-18T06:59:06.501Z,0.0592
2023-04-18T07:00:07.687Z,0.0000
2023-04-18T07:01:08.925Z,0.0592
2023-04-18T07:02:10.379Z,0.0000
2023-04-18T07:03:11.920Z,0.0000
2023-04-18T07:04:13.655Z,0.0000
2023-04-18T07:05:15.395Z,0.1169
2023-04-18T07:06:16.576Z,0.0592
2023-04-18T07:07:17.766Z,0.0592
2023-04-18T07:08:18.938Z,0.0000
2023-04-18T07:09:20.179Z,0.0592
2023-04-18T07:10:21.354Z,0.0000
2023-04-18T07:11:22.521Z,0.0000
2023-04-18T07:12:23.743Z,0.1775
2023-04-18T07:13:24.881Z,0.0000
2023-04-18T07:14:26.118Z,0.0592
2023-04-18T07:15:27.305Z,0.0000
2023-04-18T07:16:28.552Z,0.0591
2023-04-18T07:17:29.766Z,0.0000
2023-04-18T07:18:37.864Z,0.0000
2023-04-18T07:19:32.796Z,0.0586
2023-04-18T07:20:34.032Z,0.0592
2023-04-18T07:21:35.233Z,0.0592
2023-04-18T07:22:36.419Z,0.0000
2023-04-18T07:23:37.596Z,0.2960
2023-04-18T07:24:38.796Z,0.0592
2023-04-18T07:25:40.037Z,0.0000
2023-04-18T07:26:41.206Z,0.0000
2023-04-18T07:27:42.404Z,0.0000
2023-04-18T07:28:43.632Z,0.0000
2023-04-18T07:29:44.782Z,0.0000
2023-04-18T07:30:45.949Z,0.1184
2023-04-18T07:31:47.112Z,0.5329
2023-04-18T07:32:48.331Z,0.0000
2023-04-18T07:33:49.487Z,0.0000
2023-04-18T07:34:50.693Z,0.0592
2023-04-18T07:35:51.847Z,0.0592
2023-04-18T07:36:53.044Z,0.2958
2023-04-18T07:37:54.219Z,0.0000
2023-04-18T07:38:55.381Z,0.0592
2023-04-18T07:39:56.578Z,0.0592
2023-04-18T07:40:57.725Z,0.0000
2023-04-18T07:41:58.942Z,0.1184
2023-04-18T07:43:00.146Z,0.6509
2023-04-18T07:44:01.308Z,0.8291
2023-04-18T07:45:02.450Z,0.2367
2023-04-18T07:46:03.679Z,0.2368
2023-04-18T07:47:04.881Z,0.0591
2023-04-18T07:48:06.060Z,0.0000
2023-04-18T07:49:07.186Z,0.1184
2023-04-18T07:50:08.369Z,0.0000
2023-04-18T07:51:09.569Z,0.5918
2023-04-18T07:52:10.753Z,0.7693
2023-04-18T07:53:11.931Z,0.4733
2023-04-18T07:54:13.139Z,0.1184
2023-04-18T07:55:14.304Z,0.7101
2023-04-18T07:56:15.536Z,0.4733
2023-04-18T07:57:16.626Z,0.7107
2023-04-18T07:58:17.788Z,0.0000
2023-04-18T07:59:18.986Z,0.1183
2023-04-18T08:00:20.118Z,0.4144
2023-04-18T08:01:21.352Z,0.7688
2023-04-18T08:02:22.596Z,0.0000
2023-04-18T08:03:24.035Z,0.0590
2023-04-18T08:04:27.575Z,0.1175
2023-04-18T08:05:27.770Z,0.1745
2023-04-18T08:06:29.024Z,0.3545
2023-04-18T08:07:30.176Z,0.0592
2023-04-18T08:08:31.322Z,0.3551
2023-04-18T08:09:32.483Z,0.3552
2023-04-18T08:10:33.714Z,1.0060
2023-04-18T08:11:35.004Z,0.0000
2023-04-18T08:12:36.157Z,0.6508
2023-04-18T08:13:37.343Z,0.5920
2023-04-18T08:14:38.523Z,0.6506
2023-04-18T08:15:39.811Z,0.2366
2023-04-18T08:16:41.036Z,0.2365
2023-04-18T08:17:42.315Z,0.0000
2023-04-18T08:18:43.505Z,1.0049
2023-04-18T08:19:44.718Z,3.0160
2023-04-18T08:20:45.886Z,1.5980
2023-04-18T08:21:47.028Z,2.6618
2023-04-18T08:23:04.843Z,0.2960
2023-04-18T08:23:49.990Z,0.5858
2023-04-18T08:25:03.860Z,3.0192
2023-04-18T08:25:52.973Z,0.8784
2023-04-18T08:26:54.236Z,1.3003
2023-04-18T08:27:55.426Z,3.0745
2023-04-18T08:28:56.597Z,1.8937
2023-04-18T08:29:57.771Z,1.4793
2023-04-18T08:30:58.939Z,0.8287
2023-04-18T08:32:00.162Z,1.8345
2023-04-18T08:33:01.581Z,0.8856
2023-04-18T08:34:04.528Z,1.4738
2023-04-18T08:35:03.782Z,2.6142
2023-04-18T08:36:04.925Z,0.1183
2023-04-18T08:37:06.073Z,2.7242
2023-04-18T08:38:07.325Z,1.1237
2023-04-18T08:39:08.514Z,1.0047
2023-04-18T08:40:09.723Z,0.0000
2023-04-18T08:41:10.866Z,0.0592
2023-04-18T08:42:12.069Z,0.1183
2023-04-18T08:43:13.258Z,0.4142
2023-04-18T08:44:14.602Z,2.0709
2023-04-18T08:45:16.004Z,2.4107
2023-04-18T08:46:17.242Z,1.1836
2023-04-18T08:47:18.460Z,1.1812
2023-04-18T08:48:19.840Z,0.4732
2023-04-18T08:49:21.036Z,0.5900
2023-04-18T08:50:22.200Z,1.2418
2023-04-18T08:51:23.339Z,0.8288
2023-04-18T08:52:24.547Z,2.1290
2023-04-18T08:53:25.725Z,2.5450
2023-04-18T08:54:27.488Z,2.0095
2023-04-18T08:55:28.813Z,1.2880
2023-04-18T08:56:29.990Z,0.5323
2023-04-18T08:57:31.211Z,0.4732
2023-04-18T08:58:32.447Z,0.9463
2023-04-18T08:59:33.633Z,0.2953
2023-04-18T09:00:34.739Z,2.3106
2023-04-18T09:01:35.942Z,0.1776
2023-04-18T09:02:37.195Z,0.0591
2023-04-18T09:03:38.567Z,0.2364
2023-04-18T09:04:39.858Z,0.1178
2023-04-18T09:05:41.000Z,0.7688
2023-04-18T09:06:42.166Z,0.5329
2023-04-18T09:07:43.321Z,0.8873
2023-04-18T09:08:44.519Z,1.0656
2023-04-18T09:09:45.662Z,0.3549
2023-04-18T09:10:46.922Z,0.8286
2023-04-18T09:11:48.085Z,1.2406
2023-04-18T09:12:49.302Z,0.7097
2023-04-18T09:13:50.542Z,2.0113
2023-04-18T09:14:51.683Z,0.4137
2023-04-18T09:15:52.917Z,0.9475
2023-04-18T09:16:54.068Z,0.8275
2023-04-18T09:17:55.291Z,0.1775
2023-04-18T09:18:56.459Z,0.2956
2023-04-18T09:19:57.590Z,0.3552
2023-04-18T09:20:58.784Z,0.7095
2023-04-18T09:21:59.946Z,0.4143
2023-04-18T09:23:01.109Z,1.1837
2023-04-18T09:24:02.297Z,0.1183
2023-04-18T09:25:03.483Z,0.0000
2023-04-18T09:26:04.663Z,0.1183
2023-04-18T09:27:05.794Z,0.0592
2023-04-18T09:28:06.951Z,0.5327
2023-04-18T09:29:08.150Z,0.7100
2023-04-18T09:30:09.325Z,0.9469
2023-04-18T09:31:10.474Z,1.0056
2023-04-18T09:32:11.608Z,0.1775
2023-04-18T09:33:12.734Z,0.7104
2023-04-18T09:34:14.134Z,0.0000
2023-04-18T09:35:15.670Z,1.5231
2023-04-18T09:36:16.887Z,0.8874
2023-04-18T09:37:17.993Z,1.7747
2023-04-18T09:38:19.187Z,0.0592
2023-04-18T09:39:20.297Z,1.0061
2023-04-18T09:40:21.439Z,0.8877
2023-04-18T09:41:22.575Z,0.1776
2023-04-18T09:42:24.083Z,0.2961
2023-04-18T09:43:25.776Z,0.1166
2023-04-18T09:44:26.937Z,0.1184
2023-04-18T09:45:28.198Z,0.1184
2023-04-18T09:46:29.372Z,0.2361
2023-04-18T09:47:30.540Z,2.3073
2023-04-18T09:48:31.675Z,0.1183
2023-04-18T09:49:32.845Z,0.5920
2023-04-18T09:50:34.004Z,0.1183
2023-04-18T09:51:35.164Z,0.2368
2023-04-18T09:52:36.283Z,0.5325
2023-04-18T09:53:37.417Z,2.1904
2023-04-18T09:54:38.551Z,1.8936
2023-04-18T09:55:39.714Z,0.0000
2023-04-18T09:56:40.841Z,0.5916
2023-04-18T09:57:41.967Z,0.2368
2023-04-18T09:58:43.105Z,2.0708
2023-04-18T09:59:44.328Z,0.8286
2023-04-18T10:00:46.901Z,1.5939
2023-04-18T10:01:45.829Z,0.0000
2023-04-18T10:02:47.033Z,1.0640
2023-04-18T10:03:48.471Z,0.5901
2023-04-18T10:04:50.035Z,0.2345
2023-04-18T10:05:51.312Z,1.1227
2023-04-18T10:06:52.476Z,1.1224
2023-04-18T10:07:53.607Z,0.2961
2023-04-18T10:08:54.735Z,2.1895
2023-04-18T10:09:55.879Z,1.3608
2023-04-18T10:10:56.990Z,1.4801
2023-04-18T10:11:58.113Z,0.9470
2023-04-18T10:12:59.217Z,2.4860
2023-04-18T10:14:00.328Z,1.9534
2023-04-18T10:15:02.150Z,1.1836
2023-04-18T10:16:03.288Z,2.5179
2023-04-18T10:17:04.410Z,1.4189
2023-04-18T10:18:06.446Z,3.1974
2023-04-18T10:19:07.963Z,1.5062
2023-04-18T10:20:09.111Z,2.6045
2023-04-18T10:21:10.229Z,2.2484
2023-04-18T10:22:11.410Z,1.4199
2023-04-18T10:23:12.625Z,2.4271
2023-04-18T10:24:13.874Z,3.8376
2023-04-18T10:25:15.499Z,2.3524
2023-04-18T10:26:16.814Z,1.8831
2023-04-18T10:27:18.030Z,2.0701
2023-04-18T10:28:19.161Z,3.4285
2023-04-18T10:29:20.298Z,1.5979
2023-04-18T10:30:21.534Z,1.2423
2023-04-18T10:31:22.857Z,1.6543
2023-04-18T10:32:24.129Z,1.0612
2023-04-18T10:33:30.894Z,1.4179
2023-04-18T10:34:26.945Z,0.4106
2023-04-18T10:35:28.065Z,0.6510
2023-04-18T10:36:29.275Z,0.2367
2023-04-18T10:37:30.308Z,0.0592
2023-04-18T10:38:31.418Z,0.2962
2023-04-18T10:39:32.556Z,1.8358
2023-04-18T10:40:33.733Z,3.7832
2023-04-18T10:41:34.843Z,2.6039
2023-04-18T10:42:35.964Z,2.4874
2023-04-18T10:43:37.117Z,2.4848
2023-04-18T10:44:38.280Z,1.8926
2023-04-18T10:45:39.411Z,0.7696
2023-04-18T10:46:40.597Z,0.7688
2023-04-18T10:47:41.908Z,0.2366
2023-04-18T10:48:43.133Z,1.2373
2023-04-18T10:49:44.268Z,1.5976
2023-04-18T10:50:45.373Z,1.3619
2023-04-18T10:51:46.471Z,2.0712
2023-04-18T10:52:47.635Z,0.1183
2023-04-18T10:53:48.760Z,0.8283
2023-04-18T10:54:49.920Z,1.2417
2023-04-18T10:55:51.052Z,0.5326
2023-04-18T10:56:52.194Z,0.1184
2023-04-18T10:57:53.302Z,0.2959
2023-04-18T10:58:54.484Z,0.7695
2023-04-18T10:59:55.542Z,0.3551
2023-04-18T11:00:56.805Z,0.4145
2023-04-18T11:01:57.988Z,0.1771
2023-04-18T11:02:59.209Z,0.0000
2023-04-18T11:04:00.517Z,0.0589
2023-04-18T11:05:01.884Z,0.7661
2023-04-18T11:06:03.003Z,2.0105
2023-04-18T11:07:04.734Z,0.6445
2023-04-18T11:08:05.824Z,1.7764
2023-04-18T11:09:06.953Z,0.4736
2023-04-18T11:10:08.007Z,0.0592
2023-04-18T11:11:09.143Z,0.1184
2023-04-18T11:12:10.263Z,1.4798
2023-04-18T11:13:11.379Z,0.2958
2023-04-18T11:14:12.602Z,0.0592
2023-04-18T11:15:14.523Z,0.1170
2023-04-18T11:16:15.926Z,0.2348
2023-04-18T11:17:17.060Z,1.1243
2023-04-18T11:18:18.183Z,0.7102
2023-04-18T11:19:19.326Z,1.8336
2023-04-18T11:20:20.418Z,0.2960
2023-04-18T11:21:21.567Z,0.4143
2023-04-18T11:22:22.687Z,2.2480
2023-04-18T11:23:23.839Z,0.7104
2023-04-18T11:24:24.937Z,0.0591
2023-04-18T11:25:26.078Z,0.5920
2023-04-18T11:26:27.218Z,0.0591
2023-04-18T11:27:28.345Z,0.0592
2023-04-18T11:28:29.460Z,0.7690
2023-04-18T11:29:30.574Z,0.8882
2023-04-18T11:30:31.927Z,0.0589
2023-04-18T11:31:33.060Z,1.6578
2023-04-18T11:32:34.589Z,1.5344
2023-04-18T11:33:35.786Z,2.2364
2023-04-18T11:34:36.852Z,2.9601
2023-04-18T11:35:37.997Z,2.4834
2023-04-18T11:36:39.155Z,1.0061
2023-04-18T11:37:40.326Z,0.2957
2023-04-18T11:38:41.714Z,2.2464
2023-04-18T11:39:42.906Z,0.6480
2023-04-18T11:40:44.072Z,2.7190
2023-04-18T11:41:45.262Z,0.0591
2023-04-18T11:42:46.414Z,0.2957
2023-04-18T11:43:47.578Z,0.7096
2023-04-18T11:44:48.698Z,0.2367
2023-04-18T11:45:49.939Z,3.1943
2023-04-18T11:46:51.146Z,1.0621
2023-04-18T11:47:52.349Z,0.1183
2023-04-18T11:48:53.496Z,0.7676
2023-04-18T11:49:56.907Z,1.3009
2023-04-18T11:50:55.603Z,1.3639
2023-04-18T11:51:56.744Z,1.4791
2023-04-18T11:52:57.884Z,0.4138
2023-04-18T11:53:59.031Z,0.3549
2023-04-18T11:55:00.182Z,0.5912
2023-04-18T11:56:01.266Z,0.1183
2023-04-18T11:57:02.378Z,0.5321
2023-04-18T11:58:03.512Z,0.8281
2023-04-18T11:59:04.631Z,0.0591
2023-04-18T12:00:05.746Z,0.8276
2023-04-18T12:01:06.845Z,0.1183
2023-04-18T12:02:16.034Z,1.0052
2023-04-18T12:03:11.771Z,0.9952
2023-04-18T12:04:12.141Z,0.4070
2023-04-18T12:05:13.918Z,0.7601
2023-04-18T12:06:15.510Z,0.5263
2023-04-18T12:07:16.587Z,0.8278
2023-04-18T12:08:17.730Z,1.0053
2023-04-18T12:09:18.833Z,1.1829
2023-04-18T12:10:19.928Z,0.2366
2023-04-18T12:11:21.031Z,0.2957
2023-04-18T12:12:22.182Z,0.4140
2023-04-18T12:13:23.247Z,0.2956
2023-04-18T12:14:24.392Z,0.5915
2023-04-18T12:15:25.634Z,1.0611
2023-04-18T12:16:26.896Z,2.1841
2023-04-18T12:17:28.019Z,1.5961
2023-04-18T12:18:29.163Z,0.8278
2023-04-18T12:19:30.309Z,2.7178
2023-04-18T12:20:31.450Z,1.7149
2023-04-18T12:21:32.548Z,1.4778
2023-04-18T12:22:33.624Z,0.8285
2023-04-18T12:23:34.748Z,0.2956
2023-04-18T12:24:35.881Z,1.5378
2023-04-18T12:25:36.961Z,1.0643
2023-04-18T12:26:38.106Z,0.5322
2023-04-18T12:27:39.207Z,2.7206
2023-04-18T12:28:40.373Z,1.3002
2023-04-18T12:29:41.483Z,2.3057
2023-04-18T12:30:42.093Z,2.5049
2023-04-18T12:31:43.182Z,2.7793
2023-04-18T12:32:44.344Z,2.4818
2023-04-18T12:33:45.474Z,1.7720
2023-04-18T12:34:46.548Z,1.1237
2023-04-18T12:35:49.446Z,3.9626
2023-04-18T12:36:48.309Z,2.5585
2023-04-18T12:37:49.429Z,0.7091
2023-04-18T12:38:50.518Z,0.8278
2023-04-18T12:39:51.602Z,0.1773
2023-04-18T12:40:52.758Z,1.8323
2023-04-18T12:41:53.800Z,1.4182
2023-04-18T12:42:54.905Z,2.4247